Terminal Aerodrome Forecast
Issued by NWS

Home | Current Version | Previous Version | Text Only | Print | Product List | Glossary On
Versions: 1 2 3 4 5 6 7 8 9 10 11 12 13 14 15 16
000
FTUS43 KIWX 300500
TAFSBN
TAF
KSBN 300520Z 3006/3106 14008KT P6SM SCT050 BKN100
     FM301400 20012G20KT P6SM SCT040 BKN100
     FM301800 21016G22KT P6SM VCTS BKN040CB PROB30 3019/3023 4SM
      -TSRA BKN030CB
     FM310200 20008KT 5SM BR BKN025=

USA.gov is the U.S. government's official web portal to all federal, state and local government web resources and services.